createdAt,value
2023-02-22T00:01:35.316Z,46.57
2023-02-22T00:04:03.826Z,44.23
2023-02-22T00:06:31.183Z,33.73
2023-02-22T00:08:59.327Z,35.17
2023-02-22T00:11:27.139Z,37.00
2023-02-22T00:13:57.309Z,41.77
2023-02-22T00:16:25.859Z,36.27
2023-02-22T00:18:53.843Z,37.37
2023-02-22T00:21:21.767Z,46.40
2023-02-22T00:23:49.669Z,48.23
2023-02-22T00:26:18.859Z,53.37
2023-02-22T00:28:51.317Z,49.17
2023-02-22T00:31:19.327Z,49.23
2023-02-22T00:33:46.959Z,55.33
2023-02-22T00:36:15.015Z,50.00
2023-02-22T00:38:42.742Z,44.67
2023-02-22T00:41:10.558Z,43.60
2023-02-22T00:43:38.003Z,44.57
2023-02-22T00:46:05.576Z,43.93
2023-02-22T00:48:33.034Z,46.77
2023-02-22T00:51:00.431Z,41.97
2023-02-22T00:53:27.845Z,44.40
2023-02-22T00:55:55.435Z,47.53
2023-02-22T00:58:24.342Z,36.00
2023-02-22T01:00:51.776Z,37.13
2023-02-22T01:03:20.181Z,38.47
2023-02-22T01:05:47.853Z,43.27
2023-02-22T01:08:16.249Z,42.83
2023-02-22T01:10:44.138Z,43.07
2023-02-22T01:13:12.845Z,41.43
2023-02-22T01:15:41.974Z,41.43
2023-02-22T01:18:09.842Z,40.13
2023-02-22T01:20:37.556Z,46.93
2023-02-22T01:23:07.827Z,43.57
2023-02-22T01:25:35.801Z,45.83
2023-02-22T01:28:04.437Z,46.00
2023-02-22T01:30:33.339Z,43.13
2023-02-22T01:33:01.314Z,38.30
2023-02-22T01:35:30.415Z,41.43
2023-02-22T01:37:58.378Z,40.60
2023-02-22T01:40:33.244Z,42.03
2023-02-22T01:43:05.710Z,43.40
2023-02-22T01:45:41.551Z,47.90
2023-02-22T01:48:12.303Z,45.90
2023-02-22T01:50:41.561Z,47.37
2023-02-22T01:53:09.874Z,55.70
2023-02-22T01:55:39.398Z,47.77
2023-02-22T01:58:07.403Z,45.30
2023-02-22T02:00:34.922Z,43.43
2023-02-22T02:03:06.469Z,46.23
2023-02-22T02:05:34.988Z,42.90
2023-02-22T02:08:06.506Z,45.70
2023-02-22T02:10:34.941Z,45.80
2023-02-22T02:13:04.012Z,47.57
2023-02-22T02:15:34.711Z,46.33
2023-02-22T02:18:04.343Z,54.23
2023-02-22T02:20:38.198Z,46.63
2023-02-22T02:23:11.676Z,56.67
2023-02-22T02:25:48.718Z,51.73
2023-02-22T02:28:35.178Z,55.83
2023-02-22T02:31:18.075Z,51.53
2023-02-22T02:34:06.418Z,54.10
2023-02-22T02:36:37.136Z,61.30
2023-02-22T02:39:14.674Z,59.07
2023-02-22T02:41:45.652Z,61.20
2023-02-22T02:44:23.469Z,60.60
2023-02-22T02:46:56.303Z,62.50
2023-02-22T02:49:27.845Z,58.47
2023-02-22T02:51:57.098Z,64.13
2023-02-22T02:54:25.334Z,70.63
2023-02-22T02:56:53.456Z,78.60
2023-02-22T02:59:29.717Z,84.37
2023-02-22T03:01:57.123Z,81.73
2023-02-22T03:04:35.491Z,83.97
2023-02-22T03:07:15.417Z,82.07
2023-02-22T03:09:53.055Z,80.73
2023-02-22T03:12:29.167Z,87.87
2023-02-22T03:15:02.812Z,101.77
2023-02-22T03:17:49.876Z,97.07
2023-02-22T03:20:17.208Z,117.20
2023-02-22T03:22:49.645Z,98.87
2023-02-22T03:25:31.460Z,103.37
2023-02-22T03:28:03.430Z,107.50
2023-02-22T03:30:43.454Z,109.30
2023-02-22T03:33:14.819Z,91.47
2023-02-22T03:35:45.355Z,113.53
2023-02-22T03:38:14.862Z,105.83
2023-02-22T03:40:45.822Z,87.90
2023-02-22T03:43:15.934Z,87.93
2023-02-22T03:45:46.455Z,105.47
2023-02-22T03:48:24.465Z,91.60
2023-02-22T03:50:52.570Z,109.63
2023-02-22T03:53:23.082Z,112.80
2023-02-22T03:55:52.216Z,121.13
2023-02-22T03:58:22.373Z,102.50
2023-02-22T04:00:53.032Z,95.40
2023-02-22T04:03:21.658Z,103.23
2023-02-22T04:05:49.154Z,92.33
2023-02-22T04:08:17.428Z,91.77
2023-02-22T04:10:44.768Z,97.17
2023-02-22T04:13:14.544Z,76.57
2023-02-22T04:15:45.948Z,87.90
2023-02-22T04:18:14.127Z,67.13
2023-02-22T04:20:41.816Z,76.60
2023-02-22T04:23:12.134Z,96.33
2023-02-22T04:25:41.496Z,92.70
2023-02-22T04:28:11.717Z,108.20
2023-02-22T04:30:45.778Z,123.80
2023-02-22T04:33:16.225Z,104.97
2023-02-22T04:35:43.573Z,108.33
2023-02-22T04:38:11.063Z,110.33
2023-02-22T04:40:40.397Z,104.57
2023-02-22T04:43:08.503Z,118.47
2023-02-22T04:45:36.105Z,113.70
2023-02-22T04:48:04.692Z,106.97
2023-02-22T04:50:32.076Z,132.10
2023-02-22T04:52:59.431Z,97.10
2023-02-22T04:55:28.103Z,124.83
2023-02-22T04:57:56.665Z,105.90
2023-02-22T05:00:24.279Z,106.87
2023-02-22T05:02:56.119Z,112.17
2023-02-22T05:05:23.580Z,76.47
2023-02-22T05:07:51.023Z,109.63
2023-02-22T05:10:18.726Z,86.67
2023-02-22T05:12:46.246Z,164.43
2023-02-22T05:15:16.720Z,132.40
2023-02-22T05:17:44.034Z,122.07
2023-02-22T05:20:19.529Z,90.27
2023-02-22T05:22:47.101Z,136.47
2023-02-22T05:25:15.468Z,113.90
2023-02-22T05:27:42.835Z,113.50
2023-02-22T05:30:11.904Z,129.20
2023-02-22T05:32:39.415Z,172.47
2023-02-22T05:35:08.594Z,158.33
2023-02-22T05:37:37.202Z,147.70
2023-02-22T05:40:04.827Z,486.27
2023-02-22T05:42:32.197Z,130.33
2023-02-22T05:45:00.332Z,107.13
2023-02-22T05:47:27.816Z,121.40
2023-02-22T05:49:55.100Z,261.23
2023-02-22T05:52:22.455Z,129.70
2023-02-22T05:54:49.866Z,116.43
2023-02-22T05:57:17.627Z,103.50
2023-02-22T05:59:44.920Z,109.90
2023-02-22T06:02:12.219Z,139.23
2023-02-22T06:04:40.152Z,143.63
2023-02-22T06:07:07.439Z,145.30
2023-02-22T06:09:35.009Z,158.20
2023-02-22T06:12:02.337Z,138.20
2023-02-22T06:14:29.606Z,134.10
2023-02-22T06:16:57.896Z,143.80
2023-02-22T06:19:26.240Z,132.57
2023-02-22T06:21:54.456Z,193.73
2023-02-22T06:24:22.687Z,140.83
2023-02-22T06:27:00.663Z,161.90
2023-02-22T06:29:28.823Z,178.17
2023-02-22T06:31:56.741Z,149.60
2023-02-22T06:34:24.116Z,166.57
2023-02-22T06:36:51.611Z,150.17
2023-02-22T06:39:19.427Z,163.33
2023-02-22T06:41:47.581Z,162.20
2023-02-22T06:44:15.712Z,142.83
2023-02-22T06:46:48.534Z,166.83
2023-02-22T06:49:15.851Z,192.57
2023-02-22T06:51:43.519Z,168.60
2023-02-22T06:54:10.872Z,145.90
2023-02-22T06:56:38.163Z,153.07
2023-02-22T06:59:05.946Z,155.70
2023-02-22T07:01:33.278Z,157.63
2023-02-22T07:04:00.945Z,162.70
2023-02-22T07:06:28.312Z,146.00
2023-02-22T07:08:55.582Z,168.83
2023-02-22T07:11:22.864Z,159.43
2023-02-22T07:13:50.653Z,184.57
2023-02-22T07:16:18.081Z,177.73
2023-02-22T07:18:45.541Z,146.83
2023-02-22T07:21:12.946Z,153.60
2023-02-22T07:23:40.269Z,144.37
2023-02-22T07:26:07.674Z,114.43
2023-02-22T07:28:35.183Z,127.57
2023-02-22T07:31:02.835Z,145.60
2023-02-22T07:33:30.170Z,151.00
2023-02-22T07:35:57.890Z,147.00
2023-02-22T07:38:25.386Z,137.93
2023-02-22T07:40:52.767Z,149.37
2023-02-22T07:43:21.349Z,146.50
2023-02-22T07:45:49.891Z,138.63
2023-02-22T07:48:18.299Z,109.53
2023-02-22T07:50:46.141Z,136.17
2023-02-22T07:53:15.256Z,102.40
2023-02-22T07:55:43.587Z,115.50
2023-02-22T07:58:14.942Z,119.43
2023-02-22T08:00:44.192Z,96.43
2023-02-22T08:03:13.209Z,90.17
2023-02-22T08:05:41.521Z,96.57
2023-02-22T08:08:09.202Z,89.17
2023-02-22T08:10:37.126Z,95.27
2023-02-22T08:13:05.369Z,81.33
2023-02-22T08:15:34.835Z,97.50
2023-02-22T08:18:03.089Z,100.47
2023-02-22T08:20:31.266Z,111.17
2023-02-22T08:22:59.138Z,120.93
2023-02-22T08:25:28.537Z,111.50
2023-02-22T08:28:01.306Z,114.60
2023-02-22T08:30:29.709Z,117.40
2023-02-22T08:32:58.100Z,108.80
2023-02-22T08:35:27.682Z,110.30
2023-02-22T08:37:57.180Z,114.77
2023-02-22T08:40:25.611Z,104.23
2023-02-22T08:42:53.224Z,93.77
2023-02-22T08:45:21.079Z,93.03
2023-02-22T08:47:48.722Z,103.67
2023-02-22T08:50:22.093Z,83.20
2023-02-22T08:52:51.404Z,85.50
2023-02-22T08:55:25.689Z,90.37
2023-02-22T08:57:53.101Z,77.90
2023-02-22T09:00:21.341Z,90.17
2023-02-22T09:02:48.723Z,82.83
2023-02-22T09:05:17.165Z,78.83
2023-02-22T09:07:45.155Z,70.23
2023-02-22T09:10:15.498Z,72.17
2023-02-22T09:12:43.170Z,58.60
2023-02-22T09:15:11.526Z,65.00
2023-02-22T09:17:39.314Z,54.30
2023-02-22T09:20:07.757Z,53.77
2023-02-22T09:22:35.210Z,54.57
2023-02-22T09:25:15.957Z,47.97
2023-02-22T09:27:44.415Z,45.17
2023-02-22T09:30:17.852Z,47.70
2023-02-22T09:32:45.447Z,41.30
2023-02-22T09:35:13.055Z,46.57
2023-02-22T09:37:44.581Z,43.33
2023-02-22T09:40:24.936Z,42.23
2023-02-22T09:42:57.717Z,40.33
2023-02-22T09:45:28.728Z,40.50
2023-02-22T09:47:58.607Z,48.53
2023-02-22T09:50:42.571Z,40.50
2023-02-22T09:53:29.754Z,41.40
2023-02-22T09:56:03.499Z,37.17
2023-02-22T09:58:35.049Z,40.77
2023-02-22T10:01:09.313Z,37.97
2023-02-22T10:03:41.255Z,39.57
2023-02-22T10:06:12.935Z,34.87
2023-02-22T10:08:40.683Z,34.97
2023-02-22T10:11:11.148Z,31.30
2023-02-22T10:13:52.637Z,37.47
2023-02-22T10:16:28.939Z,42.23
2023-02-22T10:19:08.310Z,34.33
2023-02-22T10:21:42.649Z,35.43
2023-02-22T10:24:19.199Z,32.53
2023-02-22T10:26:46.884Z,47.97
2023-02-22T10:29:22.025Z,33.37
2023-02-22T10:31:59.436Z,40.47
2023-02-22T10:34:28.383Z,34.23
2023-02-22T10:37:00.396Z,33.37
2023-02-22T10:39:38.991Z,40.80
2023-02-22T10:42:08.005Z,36.70
2023-02-22T10:44:36.213Z,33.93
2023-02-22T10:47:06.040Z,35.83
2023-02-22T10:49:51.648Z,33.40
2023-02-22T10:52:29.863Z,33.73
2023-02-22T10:55:13.649Z,30.43
2023-02-22T10:57:42.787Z,34.80
2023-02-22T11:00:19.882Z,33.87
2023-02-22T11:02:52.663Z,33.63
2023-02-22T11:05:46.528Z,30.87
2023-02-22T11:08:16.786Z,35.57
2023-02-22T11:10:44.266Z,36.40
2023-02-22T11:13:28.018Z,26.97
2023-02-22T11:16:15.411Z,28.93
2023-02-22T11:18:42.810Z,26.37
2023-02-22T11:21:12.299Z,29.20
2023-02-22T11:23:41.443Z,29.20
2023-02-22T11:26:14.314Z,29.77
2023-02-22T11:28:49.290Z,31.70
2023-02-22T11:31:20.170Z,27.17
2023-02-22T11:33:53.347Z,29.50
2023-02-22T11:36:30.688Z,28.17
2023-02-22T11:39:00.712Z,32.33
2023-02-22T11:41:29.443Z,25.30
2023-02-22T11:44:12.861Z,30.17
2023-02-22T11:46:41.182Z,27.70
2023-02-22T11:49:10.084Z,25.67
2023-02-22T11:51:45.093Z,27.73
2023-02-22T11:54:31.520Z,29.03
2023-02-22T11:57:01.733Z,26.70
2023-02-22T11:59:44.441Z,20.77
2023-02-22T12:02:18.532Z,26.00
2023-02-22T12:04:45.924Z,22.60
2023-02-22T12:07:32.038Z,23.50
2023-02-22T12:09:59.398Z,22.20
2023-02-22T12:12:33.614Z,23.60
2023-02-22T12:15:09.314Z,27.93
2023-02-22T12:18:00.564Z,26.53
2023-02-22T12:20:36.333Z,26.30
2023-02-22T12:23:07.475Z,21.10
2023-02-22T12:25:36.713Z,21.67
2023-02-22T12:28:15.594Z,21.87
2023-02-22T12:31:06.233Z,23.13
2023-02-22T12:33:42.569Z,22.60
2023-02-22T12:36:14.947Z,23.43
2023-02-22T12:38:44.412Z,19.07
2023-02-22T12:41:18.513Z,17.07
2023-02-22T12:43:49.047Z,21.00
2023-02-22T12:46:19.106Z,19.37
2023-02-22T12:48:46.558Z,17.30
2023-02-22T12:51:21.928Z,16.73
2023-02-22T12:53:55.649Z,21.93
2023-02-22T12:56:26.803Z,17.30
2023-02-22T12:59:13.354Z,20.07
2023-02-22T13:01:43.289Z,21.10
2023-02-22T13:04:20.458Z,18.03
2023-02-22T13:06:48.649Z,20.00
2023-02-22T13:09:34.778Z,14.90
2023-02-22T13:12:02.164Z,21.53
2023-02-22T13:14:35.615Z,17.77
2023-02-22T13:17:02.997Z,20.03
2023-02-22T13:19:41.491Z,14.63
2023-02-22T13:22:31.962Z,17.37
2023-02-22T13:25:17.783Z,15.60
2023-02-22T13:27:48.288Z,17.90
2023-02-22T13:30:35.917Z,17.00
2023-02-22T13:33:14.751Z,17.87
2023-02-22T13:35:48.730Z,16.27
2023-02-22T13:38:22.107Z,15.07
2023-02-22T13:41:04.708Z,15.13
2023-02-22T13:43:32.101Z,18.37
2023-02-22T13:46:00.229Z,14.33
2023-02-22T13:48:38.196Z,16.53
2023-02-22T13:51:24.041Z,14.43
2023-02-22T13:54:04.014Z,14.60
2023-02-22T13:56:31.449Z,15.07
2023-02-22T13:59:00.365Z,18.10
2023-02-22T14:01:45.767Z,15.40
2023-02-22T14:04:19.353Z,18.77
2023-02-22T14:06:46.792Z,15.93
2023-02-22T14:09:20.070Z,14.10
2023-02-22T14:11:48.314Z,14.73
2023-02-22T14:14:17.802Z,17.73
2023-02-22T14:16:45.380Z,17.23
2023-02-22T14:19:23.577Z,19.20
2023-02-22T14:21:56.249Z,21.83
2023-02-22T14:24:23.786Z,21.00
2023-02-22T14:27:04.879Z,15.10
2023-02-22T14:29:35.110Z,26.07
2023-02-22T14:32:02.677Z,15.20
2023-02-22T14:34:48.745Z,16.27
2023-02-22T14:37:27.087Z,16.97
2023-02-22T14:39:57.978Z,16.23
2023-02-22T14:42:30.442Z,20.83
2023-02-22T14:45:00.969Z,16.07
2023-02-22T14:47:30.340Z,14.50
2023-02-22T14:50:02.790Z,18.23
2023-02-22T14:52:30.862Z,16.53
2023-02-22T14:55:24.818Z,19.83
2023-02-22T14:58:06.103Z,16.17
2023-02-22T15:00:42.047Z,18.80
2023-02-22T15:03:18.800Z,15.90
2023-02-22T15:05:46.371Z,20.87
2023-02-22T15:08:16.176Z,26.50
2023-02-22T15:10:44.952Z,16.50
2023-02-22T15:13:23.926Z,15.17
2023-02-22T15:16:01.388Z,17.73
2023-02-22T15:18:41.365Z,16.83
2023-02-22T15:21:13.402Z,12.73
2023-02-22T15:23:51.256Z,19.07
2023-02-22T15:26:37.388Z,12.07
2023-02-22T15:29:10.209Z,16.03
2023-02-22T15:31:40.040Z,13.03
2023-02-22T15:34:11.117Z,15.87
2023-02-22T15:36:38.811Z,15.40
2023-02-22T15:39:08.779Z,16.73
2023-02-22T15:41:36.486Z,18.47
2023-02-22T15:44:17.682Z,17.13
2023-02-22T15:46:50.054Z,24.53
2023-02-22T15:49:19.328Z,16.23
2023-02-22T15:51:49.235Z,19.77
2023-02-22T15:54:27.003Z,15.07
2023-02-22T15:56:56.512Z,18.33
2023-02-22T15:59:30.371Z,16.20
2023-02-22T16:01:59.252Z,17.70
2023-02-22T16:04:28.059Z,19.80
2023-02-22T16:07:04.160Z,17.37
2023-02-22T16:09:33.219Z,19.53
2023-02-22T16:12:11.469Z,21.87
2023-02-22T16:14:38.843Z,15.93
2023-02-22T16:17:25.471Z,14.60
2023-02-22T16:19:53.325Z,18.93
2023-02-22T16:22:26.919Z,18.57
2023-02-22T16:24:55.261Z,18.97
2023-02-22T16:27:24.542Z,15.93
2023-02-22T16:30:25.088Z,17.77
2023-02-22T16:32:56.119Z,22.87
2023-02-22T16:35:28.652Z,17.67
2023-02-22T16:38:01.005Z,14.50
2023-02-22T16:40:32.393Z,17.20
2023-02-22T16:43:00.617Z,19.60
2023-02-22T16:45:28.269Z,20.33
2023-02-22T16:47:55.734Z,16.80
2023-02-22T16:50:23.841Z,18.53
2023-02-22T16:52:53.738Z,19.23
2023-02-22T16:55:22.024Z,21.53
2023-02-22T16:57:50.567Z,22.43
2023-02-22T17:00:31.194Z,25.83
2023-02-22T17:03:06.330Z,16.50
2023-02-22T17:05:37.696Z,19.83
2023-02-22T17:08:05.419Z,20.50
2023-02-22T17:10:33.175Z,18.07
2023-02-22T17:13:05.220Z,19.43
2023-02-22T17:15:40.350Z,18.07
2023-02-22T17:18:14.045Z,19.87
2023-02-22T17:20:41.421Z,18.40
2023-02-22T17:23:09.894Z,21.57
2023-02-22T17:25:39.089Z,15.70
2023-02-22T17:28:07.050Z,15.20
2023-02-22T17:30:35.901Z,19.70
2023-02-22T17:33:04.795Z,18.77
2023-02-22T17:35:36.520Z,16.33
2023-02-22T17:38:08.315Z,12.60
2023-02-22T17:40:39.627Z,20.57
2023-02-22T17:43:11.024Z,17.30
2023-02-22T17:45:39.066Z,13.63
2023-02-22T17:48:06.609Z,16.07
2023-02-22T17:50:37.008Z,15.67
2023-02-22T17:53:04.688Z,20.03
2023-02-22T17:55:34.146Z,23.60
2023-02-22T17:58:01.633Z,15.53
2023-02-22T18:00:33.728Z,16.40
2023-02-22T18:03:05.455Z,18.27
2023-02-22T18:05:33.649Z,16.87
2023-02-22T18:08:01.049Z,17.67
2023-02-22T18:10:28.444Z,22.77
2023-02-22T18:12:56.779Z,18.87
2023-02-22T18:15:28.227Z,21.80
2023-02-22T18:17:56.137Z,23.03
2023-02-22T18:20:31.131Z,23.60
2023-02-22T18:22:59.850Z,22.47
2023-02-22T18:25:27.865Z,25.27
2023-02-22T18:27:55.492Z,19.73
2023-02-22T18:30:24.516Z,22.33
2023-02-22T18:32:52.158Z,16.13
2023-02-22T18:35:19.688Z,32.83
2023-02-22T18:37:47.209Z,23.40
2023-02-22T18:40:14.602Z,33.20
2023-02-22T18:42:41.990Z,34.03
2023-02-22T18:45:09.887Z,26.03
2023-02-22T18:47:42.199Z,25.77
2023-02-22T18:50:11.543Z,19.63
2023-02-22T18:52:45.769Z,26.70
2023-02-22T18:55:18.823Z,22.47
2023-02-22T18:57:47.219Z,25.47
2023-02-22T19:00:18.134Z,20.90
2023-02-22T19:02:45.625Z,34.70
2023-02-22T19:05:17.331Z,27.03
2023-02-22T19:07:45.190Z,25.63
2023-02-22T19:10:13.144Z,27.23
2023-02-22T19:12:40.620Z,22.73
2023-02-22T19:15:08.164Z,22.17
2023-02-22T19:17:36.617Z,19.87
2023-02-22T19:20:10.023Z,22.97
2023-02-22T19:25:06.409Z,20.10
2023-02-22T19:27:34.171Z,20.97
2023-02-22T19:30:03.757Z,44.10
2023-02-22T19:32:33.520Z,76.67
2023-02-22T19:35:06.810Z,24.73
2023-02-22T19:37:35.724Z,23.63
2023-02-22T19:40:08.891Z,25.60
2023-02-22T19:42:36.535Z,29.97
2023-02-22T19:45:04.015Z,24.13
2023-02-22T19:47:31.527Z,18.67
2023-02-22T19:50:00.048Z,32.13
2023-02-22T19:52:28.943Z,22.73
2023-02-22T19:54:56.653Z,32.67
2023-02-22T19:57:24.834Z,26.98
2023-02-22T19:59:52.515Z,22.67
2023-02-22T20:02:22.937Z,22.98
2023-02-22T20:04:51.338Z,22.83
2023-02-22T20:07:18.744Z,24.80
2023-02-22T20:09:46.239Z,27.63
2023-02-22T20:12:13.712Z,22.83
2023-02-22T20:14:41.252Z,24.03
2023-02-22T20:17:10.194Z,28.73
2023-02-22T20:19:38.787Z,21.10
2023-02-22T20:22:06.155Z,22.53
2023-02-22T20:24:33.683Z,28.60
2023-02-22T20:27:01.124Z,25.50
2023-02-22T20:29:31.507Z,30.47
2023-02-22T20:32:00.184Z,28.70
2023-02-22T20:34:31.384Z,27.00
2023-02-22T20:36:59.409Z,30.07
2023-02-22T20:39:27.262Z,34.70
2023-02-22T20:41:54.704Z,27.67
2023-02-22T20:44:22.249Z,30.73
2023-02-22T20:46:49.813Z,30.33
2023-02-22T20:49:18.904Z,28.03
2023-02-22T20:51:48.083Z,23.53
2023-02-22T20:54:16.045Z,22.07
2023-02-22T20:56:44.527Z,27.63
2023-02-22T20:59:13.094Z,25.97
2023-02-22T21:01:40.651Z,23.30
2023-02-22T21:04:09.977Z,29.27
2023-02-22T21:06:38.017Z,28.55
2023-02-22T21:09:07.791Z,30.50
2023-02-22T21:11:35.522Z,28.40
2023-02-22T21:14:03.258Z,32.43
2023-02-22T21:16:35.822Z,28.33
2023-02-22T21:19:05.281Z,31.97
2023-02-22T21:21:32.884Z,25.50
2023-02-22T21:24:01.921Z,39.70
2023-02-22T21:26:30.791Z,34.20
2023-02-22T21:29:00.484Z,45.70
2023-02-22T21:31:28.615Z,42.83
2023-02-22T21:33:57.064Z,41.10
2023-02-22T21:36:25.603Z,47.90
2023-02-22T21:38:57.722Z,52.47
2023-02-22T21:41:27.682Z,43.47
2023-02-22T21:43:56.440Z,39.30
2023-02-22T21:46:24.844Z,43.53
2023-02-22T21:48:53.970Z,46.97
2023-02-22T21:51:23.394Z,44.30
2023-02-22T21:53:54.968Z,43.50
2023-02-22T21:56:24.402Z,36.60
2023-02-22T21:59:02.948Z,42.20
2023-02-22T22:01:31.591Z,40.47
2023-02-22T22:04:00.278Z,41.67
2023-02-22T22:06:28.917Z,45.30
2023-02-22T22:08:57.268Z,46.80
2023-02-22T22:11:25.272Z,44.97
2023-02-22T22:14:00.281Z,44.13
2023-02-22T22:16:33.076Z,45.50
2023-02-22T22:19:00.989Z,51.90
2023-02-22T22:21:28.829Z,48.87
2023-02-22T22:23:57.408Z,47.47
2023-02-22T22:26:26.240Z,45.17
2023-02-22T22:28:58.552Z,48.63
2023-02-22T22:31:26.511Z,51.40
2023-02-22T22:33:54.810Z,53.33
2023-02-22T22:36:23.072Z,48.87
2023-02-22T22:38:52.581Z,42.83
2023-02-22T22:41:22.102Z,54.17
2023-02-22T22:43:52.386Z,48.03
2023-02-22T22:46:19.851Z,58.47
2023-02-22T22:48:47.484Z,50.47
2023-02-22T22:51:18.431Z,57.80
2023-02-22T22:53:46.898Z,52.87
2023-02-22T22:56:19.130Z,48.67
2023-02-22T22:58:50.888Z,45.77
2023-02-22T23:01:20.036Z,48.33
2023-02-22T23:03:54.660Z,52.13
2023-02-22T23:06:26.450Z,46.47
2023-02-22T23:09:01.682Z,48.27
2023-02-22T23:11:29.899Z,47.27
2023-02-22T23:13:57.434Z,52.63
2023-02-22T23:16:25.143Z,50.40
2023-02-22T23:18:52.581Z,44.67
2023-02-22T23:21:24.331Z,48.70
2023-02-22T23:23:55.574Z,53.07
2023-02-22T23:26:26.563Z,49.97
2023-02-22T23:28:55.509Z,54.57
2023-02-22T23:31:23.515Z,57.47
2023-02-22T23:33:51.202Z,52.93
2023-02-22T23:36:19.404Z,55.07
2023-02-22T23:38:47.081Z,55.77
2023-02-22T23:41:16.729Z,56.00
2023-02-22T23:43:45.231Z,64.67
2023-02-22T23:46:18.383Z,51.23
2023-02-22T23:48:50.690Z,56.13
2023-02-22T23:51:20.952Z,60.60
2023-02-22T23:53:49.379Z,52.17
2023-02-22T23:56:21.983Z,54.47
2023-02-22T23:58:52.654Z,58.73
